CheckWX is a tool to help pilots better visualize weather data.  It is not intended as a substitute for an official pre-flight weather briefing.

18:04:53 UTC

KMDW METAR
Chicago Midway International Airport
Chicago, Illinois, USA
Current

1 hour ago

KMDW 281653Z 21007KT 9SM SCT015 BKN085 OVC150 23/21 A2986 RMK AO2 RAE30 SLP102 P0001 T02330206
Observed
May-28 @ 16:53 UTC
Wind
  • 210° at 7 KTS
Visibility
Flight Rules
VFR
Cloud Levels
  • Scattered at 1,500' AGL
  • Broken at 8,500' AGL
  • Overcast at 15,000' AGL
Temperature
23°C / 73°F
Dewpoint
21°C / 70°F
Humidity
89%
Altimeter
29.86" Hg
Pressure
1011.22 hPa
Current Rain
0.01"
Previous

2 hours ago

KMDW 281632Z 19007KT 9SM SCT013 BKN018 OVC070 23/21 A2987 RMK AO2 RAE30 P0001 T02280206
Observed
May-28 @ 16:32 UTC
Wind
  • 190° at 7 KTS
Visibility
Flight Rules
MVFR
Cloud Levels
  • Scattered at 1,300' AGL
  • Broken at 1,800' AGL
  • Overcast at 7,000' AGL
Temperature
23°C / 73°F
Dewpoint
21°C / 70°F
Humidity
89%
Altimeter
29.87" Hg
Pressure
1011.52 hPa
Current Rain
0.01"
Previous

2 hours ago

KMDW 281553Z 00000KT 8SM -RA SCT017 BKN030 OVC060 22/19 A2986 RMK AO2 RAB33 SLP102 P0001 T02220194
Observed
May-28 @ 15:53 UTC
Visibility
Flight Rules
MVFR
Conditions
Light Rain
Cloud Levels
  • Scattered at 1,700' AGL
  • Broken at 3,000' AGL
  • Overcast at 6,000' AGL
Temperature
22°C / 72°F
Dewpoint
19°C / 66°F
Humidity
83%
Altimeter
29.86" Hg
Pressure
1011.22 hPa
Current Rain
0.01"